CheckWX is a tool to help pilots better visualize weather data.  It is not intended as a substitute for an official pre-flight weather briefing.

18:09:49 UTC

KYIP TAF
Willow Run Airport
Detroit, Michigan, USA
KYIP 252335Z 2600/2624 16005KT P6SM BKN200 TEMPO 2609/2613 3SM BR FM261300 18005KT P6SM SCT250 FM261700 16007KT P6SM SCT050 BKN200 PROB30 2619/2623 3SM TSRA OVC030CB

May-26@
00:00 UTC

May-26 @ 00:00 UTC

May-26@
13:00 UTC

May-26 @ 13:00 UTC

TAF KYIP 252335Z 2600/2624 16005KT P6SM BKN200

Expired

Wind
  • 160° at 5 KTS
Cloud Levels
  • Broken at 20,000' AGL

May-26@
09:00 UTC

May-26 @ 09:00 UTC

May-26@
13:00 UTC

May-26 @ 13:00 UTC

TEMPO 2609/2613 3SM BR

Expired

Conditions
Mist
Cloud Levels

May-26@
13:00 UTC

May-26 @ 13:00 UTC

May-26@
17:00 UTC

May-26 @ 17:00 UTC

FM261300 18005KT P6SM SCT250

Expired

Wind
  • 180° at 5 KTS
Cloud Levels
  • Scattered at 25,000' AGL

May-26@
17:00 UTC

May-26 @ 17:00 UTC

May-27@
00:00 UTC

May-27 @ 00:00 UTC

FM261700 16007KT P6SM SCT050 BKN200

From

From Standard forecast or significant change

Wind
  • 160° at 7 KTS
Cloud Levels
  • Scattered at 5,000' AGL
  • Broken at 20,000' AGL

May-26@
19:00 UTC

May-26 @ 19:00 UTC

May-26@
23:00 UTC

May-26 @ 23:00 UTC

PROB30 2619/2623 3SM TSRA OVC030CB

Probable - 30% Likelihood

Probable - 30% Likelihood during this time.

Conditions
Thunderstorm, Rain
Cloud Levels
  • Overcast at 3,000' AGL